createdAt,value
2023-05-13T00:00:13.453Z,11.40
2023-05-13T00:01:16.795Z,12.43
2023-05-13T00:02:20.065Z,14.60
2023-05-13T00:03:21.786Z,10.03
2023-05-13T00:04:23.356Z,12.53
2023-05-13T00:05:24.879Z,15.97
2023-05-13T00:06:26.415Z,14.23
2023-05-13T00:07:28.395Z,11.17
2023-05-13T00:08:30.093Z,12.70
2023-05-13T00:09:31.643Z,17.57
2023-05-13T00:10:36.046Z,13.63
2023-05-13T00:11:37.658Z,12.40
2023-05-13T00:12:39.170Z,9.10
2023-05-13T00:13:40.741Z,13.53
2023-05-13T00:14:42.247Z,13.27
2023-05-13T00:15:43.756Z,11.60
2023-05-13T00:16:45.336Z,15.73
2023-05-13T00:17:46.966Z,15.13
2023-05-13T00:18:48.568Z,12.83
2023-05-13T00:19:50.138Z,15.50
2023-05-13T00:20:51.952Z,14.53
2023-05-13T00:21:53.535Z,12.20
2023-05-13T00:22:55.053Z,14.13
2023-05-13T00:23:57.194Z,15.00
2023-05-13T00:24:58.807Z,17.93
2023-05-13T00:26:00.963Z,17.87
2023-05-13T00:27:02.465Z,14.60
2023-05-13T00:28:05.029Z,11.13
2023-05-13T00:29:06.637Z,13.13
2023-05-13T00:30:08.656Z,13.13
2023-05-13T00:31:10.302Z,14.33
2023-05-13T00:32:11.899Z,14.50
2023-05-13T00:33:13.475Z,16.57
2023-05-13T00:34:15.136Z,18.93
2023-05-13T00:35:16.764Z,13.90
2023-05-13T00:36:18.350Z,16.30
2023-05-13T00:37:19.929Z,14.80
2023-05-13T00:38:22.082Z,18.83
2023-05-13T00:39:23.901Z,18.57
2023-05-13T00:40:25.799Z,14.07
2023-05-13T00:41:27.374Z,18.90
2023-05-13T00:42:28.948Z,14.50
2023-05-13T00:43:30.760Z,14.13
2023-05-13T00:44:32.376Z,12.67
2023-05-13T00:45:33.961Z,14.20
2023-05-13T00:46:35.719Z,13.53
2023-05-13T00:47:37.357Z,18.70
2023-05-13T00:48:38.941Z,19.63
2023-05-13T00:49:40.584Z,17.17
2023-05-13T00:50:44.582Z,15.07
2023-05-13T00:51:46.409Z,16.93
2023-05-13T00:52:49.799Z,17.40
2023-05-13T00:53:52.049Z,16.77
2023-05-13T00:54:53.602Z,16.67
2023-05-13T00:55:55.156Z,15.20
2023-05-13T00:56:57.377Z,17.37
2023-05-13T00:57:58.889Z,16.63
2023-05-13T00:59:00.637Z,16.47
2023-05-13T01:00:03.825Z,15.97
2023-05-13T01:01:14.884Z,13.30
2023-05-13T01:02:27.467Z,13.97
2023-05-13T01:03:58.958Z,13.03
2023-05-13T01:05:41.866Z,16.60
2023-05-13T01:07:01.478Z,13.53
2023-05-13T01:08:34.088Z,16.07
2023-05-13T01:10:06.518Z,16.50
2023-05-13T01:11:16.002Z,11.00
2023-05-13T01:12:22.701Z,16.13
2023-05-13T01:13:28.646Z,17.70
2023-05-13T01:14:34.196Z,15.73
2023-05-13T01:15:41.065Z,15.80
2023-05-13T01:16:52.991Z,13.20
2023-05-13T01:18:05.730Z,12.93
2023-05-13T01:19:36.844Z,13.87
2023-05-13T01:20:42.531Z,15.60
2023-05-13T01:21:51.995Z,15.47
2023-05-13T01:22:53.779Z,25.20
2023-05-13T01:23:56.002Z,14.30
2023-05-13T01:24:57.921Z,17.20
2023-05-13T01:25:59.500Z,14.67
2023-05-13T01:27:01.335Z,17.60
2023-05-13T01:28:03.098Z,15.33
2023-05-13T01:29:04.893Z,13.47
2023-05-13T01:30:07.807Z,15.17
2023-05-13T01:31:10.968Z,15.40
2023-05-13T01:32:12.861Z,17.90
2023-05-13T01:33:17.000Z,17.80
2023-05-13T01:34:20.869Z,15.20
2023-05-13T01:35:23.650Z,15.60
2023-05-13T01:36:25.736Z,11.80
2023-05-13T01:37:29.107Z,16.27
2023-05-13T01:38:32.214Z,15.17
2023-05-13T01:39:37.962Z,12.10
2023-05-13T01:40:40.387Z,12.10
2023-05-13T01:41:42.134Z,12.33
2023-05-13T01:42:43.745Z,11.80
2023-05-13T01:43:45.540Z,12.50
2023-05-13T01:44:47.087Z,11.73
2023-05-13T01:45:48.867Z,12.33
2023-05-13T01:46:50.796Z,12.93
2023-05-13T01:47:52.515Z,15.67
2023-05-13T01:48:54.125Z,13.87
2023-05-13T01:49:56.190Z,11.80
2023-05-13T01:50:58.407Z,11.60
2023-05-13T01:51:59.962Z,12.13
2023-05-13T01:53:01.586Z,12.77
2023-05-13T01:54:04.080Z,15.43
2023-05-13T01:55:06.008Z,13.07
2023-05-13T01:56:11.029Z,12.80
2023-05-13T01:57:12.705Z,9.47
2023-05-13T01:58:14.200Z,13.90
2023-05-13T01:59:15.988Z,13.40
2023-05-13T02:00:17.901Z,11.40
2023-05-13T02:01:21.907Z,11.13
2023-05-13T02:02:24.205Z,12.47
2023-05-13T02:03:26.069Z,12.20
2023-05-13T02:04:27.787Z,11.27
2023-05-13T02:05:31.599Z,10.80
2023-05-13T02:06:33.420Z,11.73
2023-05-13T02:07:34.984Z,10.17
2023-05-13T02:08:36.576Z,12.13
2023-05-13T02:09:38.122Z,11.30
2023-05-13T02:10:39.710Z,12.47
2023-05-13T02:11:41.342Z,12.90
2023-05-13T02:12:42.956Z,13.07
2023-05-13T02:13:44.704Z,11.93
2023-05-13T02:14:46.243Z,11.93
2023-05-13T02:15:47.802Z,10.73
2023-05-13T02:16:49.542Z,11.77
2023-05-13T02:17:51.325Z,12.00
2023-05-13T02:18:52.942Z,10.43
2023-05-13T02:19:54.471Z,10.80
2023-05-13T02:20:57.518Z,11.83
2023-05-13T02:21:59.055Z,11.60
2023-05-13T02:23:00.634Z,10.20
2023-05-13T02:24:02.293Z,10.70
2023-05-13T02:25:04.940Z,11.77
2023-05-13T02:26:06.497Z,12.17
2023-05-13T02:27:08.433Z,12.93
2023-05-13T02:28:10.608Z,10.60
2023-05-13T02:29:12.221Z,12.03
2023-05-13T02:30:13.941Z,10.93
2023-05-13T02:31:15.773Z,10.67
2023-05-13T02:32:17.613Z,11.47
2023-05-13T02:33:19.390Z,14.30
2023-05-13T02:34:21.079Z,9.83
2023-05-13T02:35:22.786Z,10.70
2023-05-13T02:36:24.453Z,12.33
2023-05-13T02:37:26.772Z,11.33
2023-05-13T02:38:28.336Z,13.00
2023-05-13T02:39:29.946Z,10.87
2023-05-13T02:40:31.622Z,9.97
2023-05-13T02:41:33.123Z,11.03
2023-05-13T02:42:34.681Z,11.10
2023-05-13T02:43:36.245Z,11.80
2023-05-13T02:44:37.752Z,10.83
2023-05-13T02:45:41.134Z,10.43
2023-05-13T02:46:44.204Z,12.70
2023-05-13T02:47:46.046Z,12.77
2023-05-13T02:48:47.694Z,14.60
2023-05-13T02:49:49.319Z,14.70
2023-05-13T02:50:50.895Z,14.70
2023-05-13T02:51:52.443Z,11.63
2023-05-13T02:52:53.974Z,11.60
2023-05-13T02:53:55.527Z,11.77
2023-05-13T02:54:57.274Z,10.53
2023-05-13T02:55:59.345Z,11.10
2023-05-13T02:57:00.897Z,10.93
2023-05-13T02:58:02.549Z,10.17
2023-05-13T02:59:04.128Z,10.67
2023-05-13T03:00:08.042Z,11.07
2023-05-13T03:01:09.643Z,9.87
2023-05-13T03:02:11.304Z,10.17
2023-05-13T03:03:13.052Z,9.70
2023-05-13T03:04:14.692Z,10.13
2023-05-13T03:05:16.562Z,11.30
2023-05-13T03:06:18.216Z,11.07
2023-05-13T03:07:19.940Z,11.67
2023-05-13T03:08:21.557Z,12.83
2023-05-13T03:09:23.098Z,9.97
2023-05-13T03:10:24.641Z,11.97
2023-05-13T03:11:26.874Z,11.30
2023-05-13T03:12:28.521Z,10.23
2023-05-13T03:13:30.034Z,10.10
2023-05-13T03:14:31.801Z,11.90
2023-05-13T03:15:33.351Z,9.93
2023-05-13T03:16:34.942Z,11.43
2023-05-13T03:17:36.537Z,9.77
2023-05-13T03:18:38.157Z,10.87
2023-05-13T03:19:39.722Z,10.37
2023-05-13T03:20:41.303Z,12.43
2023-05-13T03:21:42.900Z,9.33
2023-05-13T03:22:44.771Z,12.50
2023-05-13T03:23:46.361Z,10.47
2023-05-13T03:24:47.871Z,12.77
2023-05-13T03:25:49.436Z,11.90
2023-05-13T03:26:51.048Z,10.77
2023-05-13T03:27:52.563Z,9.63
2023-05-13T03:28:54.073Z,9.47
2023-05-13T03:29:55.640Z,9.23
2023-05-13T03:30:57.180Z,9.90
2023-05-13T03:31:58.969Z,10.67
2023-05-13T03:33:00.616Z,11.93
2023-05-13T03:34:02.252Z,12.20
2023-05-13T03:35:04.387Z,12.97
2023-05-13T03:36:07.119Z,13.63
2023-05-13T03:37:09.906Z,13.83
2023-05-13T03:38:11.480Z,14.57
2023-05-13T03:39:13.085Z,13.60
2023-05-13T03:40:14.636Z,12.67
2023-05-13T03:41:17.625Z,14.00
2023-05-13T03:42:20.444Z,11.23
2023-05-13T03:43:21.914Z,13.17
2023-05-13T03:44:24.276Z,11.27
2023-05-13T03:45:25.834Z,10.87
2023-05-13T03:46:27.551Z,11.00
2023-05-13T03:47:29.105Z,11.10
2023-05-13T03:48:31.111Z,11.60
2023-05-13T03:49:32.709Z,11.93
2023-05-13T03:50:34.265Z,12.00
2023-05-13T03:51:35.885Z,13.10
2023-05-13T03:52:37.396Z,11.97
2023-05-13T03:53:38.999Z,11.93
2023-05-13T03:54:40.591Z,12.67
2023-05-13T03:55:42.161Z,12.40
2023-05-13T03:56:43.659Z,10.97
2023-05-13T03:57:48.082Z,11.17
2023-05-13T03:58:49.823Z,11.83
2023-05-13T03:59:51.448Z,13.07
2023-05-13T04:00:52.984Z,9.57
2023-05-13T04:01:54.597Z,11.17
2023-05-13T04:02:57.009Z,10.60
2023-05-13T04:03:58.647Z,13.47
2023-05-13T04:05:00.263Z,11.90
2023-05-13T04:06:01.862Z,10.93
2023-05-13T04:07:03.436Z,14.00
2023-05-13T04:08:05.253Z,16.33
2023-05-13T04:09:06.771Z,12.00
2023-05-13T04:10:08.950Z,13.83
2023-05-13T04:11:10.614Z,12.73
2023-05-13T04:12:12.182Z,12.17
2023-05-13T04:13:13.742Z,14.37
2023-05-13T04:14:15.428Z,13.20
2023-05-13T04:15:16.977Z,13.23
2023-05-13T04:16:18.521Z,12.67
2023-05-13T04:17:20.145Z,12.13
2023-05-13T04:18:21.881Z,11.57
2023-05-13T04:19:23.650Z,11.80
2023-05-13T04:20:25.355Z,12.37
2023-05-13T04:21:27.380Z,13.07
2023-05-13T04:22:28.919Z,12.37
2023-05-13T04:23:30.463Z,13.30
2023-05-13T04:24:32.050Z,12.87
2023-05-13T04:25:35.470Z,17.77
2023-05-13T04:26:38.139Z,13.77
2023-05-13T04:27:39.665Z,14.73
2023-05-13T04:28:44.153Z,13.80
2023-05-13T04:29:45.711Z,16.63
2023-05-13T04:30:47.230Z,16.27
2023-05-13T04:31:48.815Z,13.20
2023-05-13T04:32:51.118Z,14.97
2023-05-13T04:33:52.683Z,18.00
2023-05-13T04:34:55.004Z,13.73
2023-05-13T04:35:56.564Z,13.63
2023-05-13T04:36:58.104Z,14.50
2023-05-13T04:37:59.660Z,15.07
2023-05-13T04:39:01.312Z,14.23
2023-05-13T04:40:03.051Z,14.40
2023-05-13T04:41:04.873Z,14.07
2023-05-13T04:42:06.847Z,13.83
2023-05-13T04:43:08.412Z,14.63
2023-05-13T04:44:10.044Z,16.63
2023-05-13T04:45:11.752Z,13.27
2023-05-13T04:46:13.309Z,18.57
2023-05-13T04:47:15.016Z,18.17
2023-05-13T04:48:16.836Z,16.17
2023-05-13T04:49:18.761Z,18.50
2023-05-13T04:50:21.233Z,16.00
2023-05-13T04:51:23.424Z,16.70
2023-05-13T04:52:25.446Z,15.30
2023-05-13T04:53:27.001Z,16.93
2023-05-13T04:54:28.709Z,15.10
2023-05-13T04:55:30.414Z,16.70
2023-05-13T04:56:32.042Z,14.50
2023-05-13T04:57:33.640Z,15.93
2023-05-13T04:58:35.319Z,14.37
2023-05-13T04:59:36.935Z,13.67
2023-05-13T05:00:38.455Z,14.07
2023-05-13T05:01:40.217Z,13.37
2023-05-13T05:02:42.023Z,14.60
2023-05-13T05:03:43.581Z,13.30
2023-05-13T05:04:45.322Z,13.27
2023-05-13T05:05:46.881Z,14.87
2023-05-13T05:06:48.828Z,14.10
2023-05-13T05:07:50.475Z,14.13
2023-05-13T05:08:52.117Z,12.60
2023-05-13T05:09:53.650Z,11.80
2023-05-13T05:10:55.169Z,11.67
2023-05-13T05:11:56.707Z,13.20
2023-05-13T05:12:58.290Z,13.37
2023-05-13T05:13:59.845Z,11.10
2023-05-13T05:15:01.411Z,10.67
2023-05-13T05:16:03.004Z,11.73
2023-05-13T05:17:04.808Z,10.43
2023-05-13T05:18:06.909Z,11.77
2023-05-13T05:19:08.657Z,10.60
2023-05-13T05:20:11.261Z,11.03
2023-05-13T05:21:13.134Z,12.30
2023-05-13T05:22:14.677Z,11.60
2023-05-13T05:23:16.223Z,10.07
2023-05-13T05:24:18.482Z,11.30
2023-05-13T05:25:20.097Z,13.27
2023-05-13T05:26:22.401Z,10.87
2023-05-13T05:27:23.986Z,10.63
2023-05-13T05:28:25.958Z,12.07
2023-05-13T05:29:27.527Z,13.17
2023-05-13T05:30:29.508Z,10.13
2023-05-13T05:31:31.213Z,12.53
2023-05-13T05:32:33.931Z,13.77
2023-05-13T05:33:36.529Z,11.90
2023-05-13T05:34:38.335Z,12.17
2023-05-13T05:35:39.852Z,13.37
2023-05-13T05:36:41.430Z,11.90
2023-05-13T05:37:43.031Z,11.93
2023-05-13T05:38:44.654Z,12.60
2023-05-13T05:39:46.246Z,12.40
2023-05-13T05:40:47.930Z,14.70
2023-05-13T05:41:49.616Z,14.07
2023-05-13T05:42:51.235Z,11.97
2023-05-13T05:43:52.785Z,13.70
2023-05-13T05:44:54.376Z,12.40
2023-05-13T05:45:55.979Z,15.93
2023-05-13T05:46:57.578Z,13.77
2023-05-13T05:47:59.144Z,14.93
2023-05-13T05:49:02.537Z,14.33
2023-05-13T05:50:04.801Z,12.67
2023-05-13T05:51:06.476Z,14.57
2023-05-13T05:52:10.984Z,13.37
2023-05-13T05:53:12.537Z,12.20
2023-05-13T05:54:14.126Z,13.33
2023-05-13T05:55:15.657Z,12.50
2023-05-13T05:56:17.296Z,11.03
2023-05-13T05:57:18.896Z,9.30
2023-05-13T05:58:20.660Z,10.63
2023-05-13T05:59:22.209Z,12.10
2023-05-13T06:00:24.623Z,9.90
2023-05-13T06:01:26.286Z,9.73
2023-05-13T06:02:27.955Z,10.23
2023-05-13T06:03:29.805Z,10.57
2023-05-13T06:04:31.533Z,11.43
2023-05-13T06:05:33.210Z,11.87
2023-05-13T06:06:36.706Z,10.50
2023-05-13T06:07:38.339Z,9.57
2023-05-13T06:08:39.891Z,10.47
2023-05-13T06:09:41.519Z,9.73
2023-05-13T06:10:44.182Z,10.37
2023-05-13T06:11:45.700Z,11.43
2023-05-13T06:12:47.260Z,9.30
2023-05-13T06:13:49.018Z,9.70
2023-05-13T06:14:50.616Z,9.07
2023-05-13T06:15:52.202Z,10.57
2023-05-13T06:16:55.732Z,8.70
2023-05-13T06:17:57.900Z,9.03
2023-05-13T06:18:59.581Z,7.83
2023-05-13T06:20:01.217Z,9.27
2023-05-13T06:21:02.784Z,10.60
2023-05-13T06:22:04.522Z,12.33
2023-05-13T06:23:06.077Z,10.33
2023-05-13T06:24:07.967Z,8.93
2023-05-13T06:25:10.090Z,9.30
2023-05-13T06:26:11.679Z,10.77
2023-05-13T06:27:13.673Z,12.87
2023-05-13T06:28:15.397Z,10.63
2023-05-13T06:29:17.066Z,11.07
2023-05-13T06:30:18.945Z,10.63
2023-05-13T06:31:20.739Z,11.33
2023-05-13T06:32:22.420Z,9.57
2023-05-13T06:33:24.073Z,11.33
2023-05-13T06:34:25.768Z,13.60
2023-05-13T06:35:27.382Z,9.87
2023-05-13T06:36:28.984Z,9.13
2023-05-13T06:37:30.697Z,9.73
2023-05-13T06:38:32.993Z,7.80
2023-05-13T06:39:34.538Z,10.70
2023-05-13T06:40:36.205Z,9.80
2023-05-13T06:41:38.742Z,9.63
2023-05-13T06:42:41.213Z,9.00
2023-05-13T06:43:45.596Z,10.03
2023-05-13T06:44:47.286Z,9.70
2023-05-13T06:45:49.198Z,11.83
2023-05-13T06:46:50.981Z,11.77
2023-05-13T06:47:53.477Z,11.83
2023-05-13T06:48:56.871Z,9.27
2023-05-13T06:49:58.562Z,13.93
2023-05-13T06:51:00.157Z,9.37
2023-05-13T06:52:01.826Z,9.13
2023-05-13T06:53:03.528Z,11.33
2023-05-13T06:54:05.234Z,9.90
2023-05-13T06:55:07.105Z,9.93
2023-05-13T06:56:08.736Z,9.30
2023-05-13T06:57:10.355Z,11.17
2023-05-13T06:58:11.974Z,11.70
2023-05-13T06:59:13.701Z,10.10
2023-05-13T07:00:16.115Z,10.93
2023-05-13T07:01:17.820Z,8.33
2023-05-13T07:02:19.392Z,10.97
2023-05-13T07:03:21.083Z,8.97
2023-05-13T07:04:22.651Z,11.50
2023-05-13T07:05:24.283Z,11.13
2023-05-13T07:06:25.825Z,13.77
2023-05-13T07:07:27.359Z,10.80
2023-05-13T07:08:28.877Z,10.17
2023-05-13T07:09:30.428Z,11.77
2023-05-13T07:10:35.560Z,10.63
2023-05-13T07:11:37.414Z,9.63
2023-05-13T07:12:38.982Z,9.13
2023-05-13T07:13:40.486Z,10.37
2023-05-13T07:14:43.822Z,10.13
2023-05-13T07:15:47.354Z,11.17
2023-05-13T07:16:48.918Z,8.97
2023-05-13T07:17:50.677Z,9.73
2023-05-13T07:18:54.090Z,8.97
2023-05-13T07:19:56.895Z,8.40
2023-05-13T07:20:58.484Z,9.07
2023-05-13T07:22:00.045Z,7.97
2023-05-13T07:23:01.579Z,7.40
2023-05-13T07:24:05.224Z,7.63
2023-05-13T07:25:07.207Z,7.77
2023-05-13T07:26:08.727Z,7.50
2023-05-13T07:27:10.300Z,7.63
2023-05-13T07:28:11.846Z,8.13
2023-05-13T07:29:13.458Z,7.67
2023-05-13T07:30:15.191Z,9.27
2023-05-13T07:31:16.857Z,8.70
2023-05-13T07:32:18.668Z,11.23
2023-05-13T07:33:20.366Z,6.67
2023-05-13T07:34:21.909Z,8.33
2023-05-13T07:35:23.780Z,6.80
2023-05-13T07:36:25.633Z,6.80
2023-05-13T07:37:27.300Z,7.57
2023-05-13T07:38:28.805Z,5.77
2023-05-13T07:39:30.756Z,7.57
2023-05-13T07:40:32.286Z,5.27
2023-05-13T07:41:37.264Z,5.63
2023-05-13T07:42:38.821Z,4.50
2023-05-13T07:43:40.899Z,5.83
2023-05-13T07:44:42.517Z,4.60
2023-05-13T07:45:44.073Z,4.83
2023-05-13T07:46:45.753Z,6.90
2023-05-13T07:47:47.594Z,6.30
2023-05-13T07:48:49.202Z,6.83
2023-05-13T07:49:50.934Z,6.47
2023-05-13T07:50:52.557Z,6.43
2023-05-13T07:51:54.148Z,5.50
2023-05-13T07:52:55.708Z,4.20
2023-05-13T07:53:57.288Z,5.13
2023-05-13T07:54:58.874Z,4.20
2023-05-13T07:56:00.763Z,5.27
2023-05-13T07:57:02.874Z,9.23
2023-05-13T07:58:04.628Z,8.80
2023-05-13T07:59:06.199Z,5.20
2023-05-13T08:00:08.299Z,5.93
2023-05-13T08:01:09.828Z,5.10
2023-05-13T08:02:12.740Z,6.60
2023-05-13T08:03:14.441Z,4.97
2023-05-13T08:04:16.245Z,4.40
2023-05-13T08:05:17.967Z,5.65
2023-05-13T08:06:19.627Z,4.38
2023-05-13T08:07:21.211Z,4.77
2023-05-13T08:08:22.797Z,3.90
2023-05-13T08:09:24.513Z,7.27
2023-05-13T08:10:26.027Z,4.15
2023-05-13T08:11:28.464Z,5.93
2023-05-13T08:12:30.111Z,3.42
2023-05-13T08:13:31.843Z,3.40
2023-05-13T08:14:33.498Z,4.17
2023-05-13T08:15:35.390Z,3.57
2023-05-13T08:16:37.513Z,3.43
2023-05-13T08:17:39.136Z,4.67
2023-05-13T08:18:40.790Z,3.60
2023-05-13T08:19:42.337Z,5.63
2023-05-13T08:20:44.205Z,2.93
2023-05-13T08:21:45.948Z,3.00
2023-05-13T08:22:47.899Z,2.83
2023-05-13T08:23:52.560Z,5.27
2023-05-13T08:24:54.298Z,3.28
2023-05-13T08:25:55.882Z,4.07
2023-05-13T08:26:57.537Z,3.10
2023-05-13T08:27:59.086Z,3.42
2023-05-13T08:29:00.775Z,3.67
2023-05-13T08:30:02.430Z,2.90
2023-05-13T08:31:04.251Z,3.75
2023-05-13T08:32:06.299Z,2.35
2023-05-13T08:33:08.477Z,3.10
2023-05-13T08:34:10.367Z,3.95
2023-05-13T08:35:11.905Z,3.63
2023-05-13T08:36:14.222Z,2.97
2023-05-13T08:37:15.753Z,2.90
2023-05-13T08:38:17.297Z,3.70
2023-05-13T08:39:18.786Z,3.17
2023-05-13T08:40:21.378Z,2.50
2023-05-13T08:41:23.017Z,2.85
2023-05-13T08:42:30.526Z,3.70
2023-05-13T08:43:33.318Z,3.40
2023-05-13T08:44:39.586Z,10.15
2023-05-13T08:45:42.859Z,1.63
2023-05-13T08:46:53.516Z,4.88
2023-05-13T08:48:02.950Z,4.70
2023-05-13T08:49:05.182Z,7.38
2023-05-13T08:50:07.659Z,2.45
2023-05-13T08:51:10.119Z,2.50
2023-05-13T08:52:11.850Z,2.15
2023-05-13T08:53:13.531Z,2.45
2023-05-13T08:54:16.980Z,3.15
2023-05-13T08:55:19.072Z,5.38
2023-05-13T08:56:22.542Z,3.25
2023-05-13T08:57:24.216Z,7.35
2023-05-13T08:58:25.903Z,4.75
2023-05-13T08:59:27.544Z,14.73
2023-05-13T09:00:29.618Z,31.92
2023-05-13T09:01:32.368Z,19.92
2023-05-13T09:02:34.513Z,5.90
2023-05-13T09:03:41.299Z,3.60
2023-05-13T09:04:44.817Z,2.63
2023-05-13T09:05:46.981Z,4.72
2023-05-13T09:06:48.780Z,2.83
2023-05-13T09:07:50.415Z,6.43
2023-05-13T09:08:52.753Z,5.70
2023-05-13T09:09:54.550Z,2.92
2023-05-13T09:10:56.695Z,2.55
2023-05-13T09:11:58.403Z,3.88
2023-05-13T09:13:01.835Z,4.57
2023-05-13T09:14:08.397Z,3.20
2023-05-13T09:15:15.164Z,6.60
2023-05-13T09:16:16.902Z,3.08
2023-05-13T09:17:18.593Z,7.47
2023-05-13T09:18:20.375Z,2.53
2023-05-13T09:19:24.344Z,2.92
2023-05-13T09:20:26.947Z,2.97
2023-05-13T09:21:31.726Z,5.15
2023-05-13T09:22:33.565Z,3.70
2023-05-13T09:23:35.841Z,3.05
2023-05-13T09:24:37.368Z,4.50
2023-05-13T09:25:39.872Z,2.72
2023-05-13T09:26:42.200Z,7.00
2023-05-13T09:27:47.071Z,2.40
2023-05-13T09:29:14.892Z,2.92
2023-05-13T09:30:16.572Z,3.03
2023-05-13T09:31:33.842Z,4.68
2023-05-13T09:32:35.572Z,3.63
2023-05-13T09:33:37.204Z,3.22
2023-05-13T09:34:39.676Z,2.92
2023-05-13T09:35:49.522Z,4.30
2023-05-13T09:37:04.245Z,3.15
2023-05-13T09:38:20.467Z,2.92
2023-05-13T09:39:22.388Z,3.63
2023-05-13T09:40:24.215Z,3.47
2023-05-13T09:41:27.456Z,4.93
2023-05-13T09:42:29.576Z,3.25
2023-05-13T09:43:34.792Z,2.90
2023-05-13T09:44:36.521Z,3.15
2023-05-13T09:45:38.178Z,5.13
2023-05-13T09:46:42.259Z,5.32
2023-05-13T09:47:44.406Z,3.67
2023-05-13T09:48:46.260Z,4.43
2023-05-13T09:49:56.484Z,4.55
2023-05-13T09:50:58.534Z,2.88
2023-05-13T09:52:00.384Z,3.10
2023-05-13T09:53:14.657Z,3.28
2023-05-13T09:54:16.798Z,3.72
2023-05-13T09:55:18.540Z,3.17
2023-05-13T09:56:23.991Z,3.20
2023-05-13T09:57:29.083Z,4.78
2023-05-13T09:58:31.154Z,3.50
2023-05-13T09:59:34.227Z,4.45
2023-05-13T10:00:38.967Z,6.50
2023-05-13T10:01:41.715Z,3.47
2023-05-13T10:02:44.722Z,3.35
2023-05-13T10:03:46.691Z,3.20
2023-05-13T10:04:48.765Z,3.10
2023-05-13T10:05:52.561Z,6.20
2023-05-13T10:06:55.901Z,10.15
2023-05-13T10:07:58.905Z,23.80
2023-05-13T10:09:04.057Z,15.23
2023-05-13T10:10:08.634Z,7.05
2023-05-13T10:11:11.050Z,13.02
2023-05-13T10:12:14.817Z,7.65
2023-05-13T10:13:19.977Z,23.50
2023-05-13T10:14:22.284Z,9.00
2023-05-13T10:15:25.052Z,20.38
2023-05-13T10:16:28.006Z,4.72
2023-05-13T10:17:30.332Z,15.18
2023-05-13T10:18:31.910Z,7.90
2023-05-13T10:19:34.010Z,7.05
2023-05-13T10:20:35.939Z,6.07
2023-05-13T10:21:38.399Z,6.75
2023-05-13T10:22:40.551Z,12.38
2023-05-13T10:23:42.152Z,16.45
2023-05-13T10:24:44.553Z,3.47
2023-05-13T10:25:47.875Z,3.30
2023-05-13T10:26:52.719Z,3.85
2023-05-13T10:27:57.814Z,3.25
2023-05-13T10:28:59.750Z,9.65
2023-05-13T10:30:04.051Z,25.20
2023-05-13T10:31:05.693Z,16.48
2023-05-13T10:32:08.277Z,3.03
2023-05-13T10:33:10.790Z,6.97
2023-05-13T10:34:13.265Z,13.05
2023-05-13T10:35:17.559Z,11.55
2023-05-13T10:36:44.581Z,5.35
2023-05-13T10:38:01.807Z,3.50
2023-05-13T10:39:03.697Z,2.95
2023-05-13T10:40:24.983Z,4.65
2023-05-13T10:41:50.797Z,3.75
2023-05-13T10:43:08.750Z,3.58
2023-05-13T10:44:10.583Z,3.75
2023-05-13T10:45:12.283Z,3.25
2023-05-13T10:46:14.106Z,3.10
2023-05-13T10:47:17.018Z,2.92
2023-05-13T10:48:19.169Z,7.00
2023-05-13T10:49:22.405Z,3.10
2023-05-13T10:50:26.861Z,2.95
2023-05-13T10:51:29.144Z,4.40
2023-05-13T10:52:47.043Z,3.20
2023-05-13T10:53:51.147Z,3.42
2023-05-13T10:55:02.720Z,3.97
2023-05-13T10:56:08.062Z,4.45
2023-05-13T10:57:10.524Z,5.70
2023-05-13T10:58:14.270Z,6.57
2023-05-13T10:59:17.838Z,4.15
2023-05-13T11:00:20.060Z,2.90
2023-05-13T11:01:31.612Z,4.05
2023-05-13T11:02:37.522Z,3.35
2023-05-13T11:03:40.645Z,4.32
2023-05-13T11:04:59.712Z,4.47
2023-05-13T11:06:13.504Z,7.63
2023-05-13T11:07:16.659Z,3.78
2023-05-13T11:08:41.172Z,3.55
2023-05-13T11:09:49.985Z,4.38
2023-05-13T11:10:55.299Z,3.33
2023-05-13T11:12:00.553Z,3.38
2023-05-13T11:13:14.053Z,4.50
2023-05-13T11:14:17.908Z,3.60
2023-05-13T11:15:22.296Z,4.50
2023-05-13T11:16:24.295Z,3.47
2023-05-13T11:17:26.076Z,4.80
2023-05-13T11:18:31.497Z,3.90
2023-05-13T11:19:36.150Z,4.72
2023-05-13T11:20:51.473Z,5.00
2023-05-13T11:21:56.367Z,3.60
2023-05-13T11:22:58.682Z,3.10
2023-05-13T11:24:04.667Z,3.10
2023-05-13T11:25:11.996Z,4.28
2023-05-13T11:26:17.039Z,5.00
2023-05-13T11:27:20.734Z,5.75
2023-05-13T11:28:55.775Z,4.13
2023-05-13T11:29:57.457Z,3.08
2023-05-13T11:31:16.234Z,5.05
2023-05-13T11:32:52.453Z,3.50
2023-05-13T11:34:07.311Z,5.60
2023-05-13T11:35:09.666Z,4.97
2023-05-13T11:36:11.513Z,6.43
2023-05-13T11:37:13.404Z,3.20
2023-05-13T11:38:24.758Z,3.10
2023-05-13T11:39:26.575Z,4.28
2023-05-13T11:40:33.194Z,3.25
2023-05-13T11:41:34.834Z,5.70
2023-05-13T11:42:38.973Z,3.13
2023-05-13T11:43:41.158Z,5.78
2023-05-13T11:44:47.285Z,3.90
2023-05-13T11:45:50.341Z,3.85
2023-05-13T11:47:02.880Z,4.55
2023-05-13T11:48:24.093Z,4.00
2023-05-13T11:49:43.110Z,4.63
2023-05-13T11:50:44.830Z,20.35
2023-05-13T11:51:46.434Z,25.17
2023-05-13T11:52:53.350Z,18.52
2023-05-13T11:54:02.668Z,26.50
2023-05-13T11:55:05.631Z,48.08
2023-05-13T11:56:10.933Z,14.10
2023-05-13T11:57:22.870Z,47.42
2023-05-13T11:58:24.436Z,13.57
2023-05-13T11:59:27.913Z,5.78
2023-05-13T12:00:35.061Z,19.85
2023-05-13T12:01:36.649Z,4.95
2023-05-13T12:02:40.390Z,5.72
2023-05-13T12:03:42.297Z,6.85
2023-05-13T12:04:44.664Z,2.83
2023-05-13T12:05:46.526Z,6.30
2023-05-13T12:06:49.128Z,5.93
2023-05-13T12:07:51.007Z,4.05
2023-05-13T12:08:52.689Z,3.08
2023-05-13T12:09:57.438Z,3.22
2023-05-13T12:10:59.862Z,3.30
2023-05-13T12:12:01.664Z,3.67
2023-05-13T12:13:03.387Z,3.75
2023-05-13T12:14:06.910Z,4.90
2023-05-13T12:15:10.928Z,5.78
2023-05-13T12:16:12.899Z,3.80
2023-05-13T12:17:14.620Z,4.38
2023-05-13T12:18:16.240Z,5.28
2023-05-13T12:19:19.792Z,3.67
2023-05-13T12:20:23.044Z,3.88
2023-05-13T12:21:24.721Z,3.60
2023-05-13T12:22:26.260Z,4.25
2023-05-13T12:23:39.607Z,4.10
2023-05-13T12:24:41.550Z,5.03
2023-05-13T12:25:48.250Z,4.70
2023-05-13T12:26:50.009Z,3.50
2023-05-13T12:27:54.631Z,5.05
2023-05-13T12:28:58.225Z,5.70
2023-05-13T12:29:59.797Z,3.95
2023-05-13T12:31:03.191Z,5.25
2023-05-13T12:32:06.480Z,6.13
2023-05-13T12:33:16.069Z,3.97
2023-05-13T12:34:30.850Z,4.15
2023-05-13T12:35:33.206Z,5.47
2023-05-13T12:36:38.657Z,3.45
2023-05-13T12:37:40.802Z,6.55
2023-05-13T12:39:01.346Z,5.20
2023-05-13T12:40:13.422Z,5.72
2023-05-13T12:41:15.043Z,3.38
2023-05-13T12:42:18.083Z,3.35
2023-05-13T12:43:20.433Z,4.07
2023-05-13T12:44:22.842Z,6.80
2023-05-13T12:45:30.782Z,6.25
2023-05-13T12:46:32.749Z,5.20
2023-05-13T12:47:50.609Z,4.97
2023-05-13T12:48:56.613Z,4.53
2023-05-13T12:49:59.021Z,4.10
2023-05-13T12:51:02.096Z,4.50
2023-05-13T12:52:05.028Z,4.80
2023-05-13T12:53:06.626Z,11.05
2023-05-13T12:54:08.228Z,3.60
2023-05-13T12:55:09.981Z,8.02
2023-05-13T12:56:11.584Z,4.35
2023-05-13T12:57:16.072Z,4.88
2023-05-13T12:58:18.648Z,4.10
2023-05-13T12:59:20.227Z,5.75
2023-05-13T13:00:22.251Z,3.55
2023-05-13T13:01:24.320Z,5.13
2023-05-13T13:02:26.124Z,3.75
2023-05-13T13:03:28.030Z,3.40
2023-05-13T13:04:30.059Z,3.40
2023-05-13T13:05:31.909Z,4.10
2023-05-13T13:06:33.777Z,6.05
2023-05-13T13:07:35.980Z,5.85
2023-05-13T13:08:37.635Z,3.53
2023-05-13T13:09:39.234Z,6.93
2023-05-13T13:10:40.860Z,6.10
2023-05-13T13:11:42.427Z,3.97
2023-05-13T13:12:44.435Z,3.90
2023-05-13T13:13:47.110Z,3.70
2023-05-13T13:14:49.078Z,5.93
2023-05-13T13:15:50.785Z,3.78
2023-05-13T13:16:52.853Z,4.88
2023-05-13T13:17:56.141Z,3.95
2023-05-13T13:19:01.750Z,3.80
2023-05-13T13:20:05.296Z,7.03
2023-05-13T13:21:07.640Z,5.13
2023-05-13T13:22:09.513Z,3.50
2023-05-13T13:23:11.284Z,6.05
2023-05-13T13:24:13.220Z,4.85
2023-05-13T13:28:46.101Z,4.75
2023-05-13T13:33:50.640Z,5.03
2023-05-13T13:34:52.244Z,4.43
2023-05-13T13:35:53.800Z,8.30
2023-05-13T13:36:55.375Z,4.60
2023-05-13T13:37:56.959Z,5.88
2023-05-13T13:38:58.515Z,6.43
2023-05-13T13:40:00.121Z,7.45
2023-05-13T13:41:01.695Z,8.18
2023-05-13T13:42:06.069Z,6.97
2023-05-13T13:43:08.479Z,5.40
2023-05-13T13:44:10.044Z,5.80
2023-05-13T13:45:14.935Z,4.80
2023-05-13T13:46:16.495Z,5.75
2023-05-13T13:47:18.034Z,4.90
2023-05-13T13:48:19.659Z,4.78
2023-05-13T13:49:23.861Z,4.90
2023-05-13T13:50:25.730Z,5.45
2023-05-13T13:51:27.267Z,6.15
2023-05-13T13:52:28.835Z,4.38
2023-05-13T13:53:30.356Z,8.27
2023-05-13T13:54:31.933Z,5.40
2023-05-13T13:55:33.479Z,4.38